Main page
METAR-TAF:

METAR-TAF

Airports :

Nîmes–Alès–Camargue–Cévennes Airport

Nîmes, France

latitude: 43-45N, longitude: 004-25E, elevation: 94 m

Current weather observation

The report was made 24 minutes ago, at 15:00 UTC
Wind 10 kt from the South, varying between Southeast and South/Southwest
Temperature 19°C
Humidity 34%
Pressure 1019 hPa
Visibility 10 km or more
no clouds below 1500 m and no cumulonimbus

METAR: LFTW 041500Z AUTO 17010KT 140V200 CAVOK 19/03 Q1019 NOSIG

Time: 17:24 (15:24 UTC)

Forecast

The report was made 1 hour and 24 minutes ago, at 14:00 UTC
Forecast valid from 04 at 15 UTC to 05 at 15 UTC
Wind 10 kt from the South
Visibility 10 km or more
no clouds below 1500 m and no cumulonimbus
Becoming
from 04 at 18 UTC to 04 at 21 UTC
Wind 4 kt from the North/Northeast
Becoming
from 05 at 09 UTC to 05 at 12 UTC
Wind 12 kt from the South

TAF: LFTW 041400Z 0415/0515 18010KT CAVOK BECMG 0418/0421 03004KT BECMG 0509/0512 17012KT

Weather observations and forecasts of more than 4000 airports (METAR and TAF reports).

The available stations are represented by yellow and red dots on the map.

Hover mouse over dot to see the name of the station.

Then click to see weather observations and forecasts.

To change the map : click on the green buttons with a black cross to zoom in, on the green button with a dash to zoom out, or on the green arrows for adjacent maps.


METAR-TAF: